Time;durP1;ratioP1;P1;durP2;ratioP2;P2;SDS_P1;SDS_P2;PMS_P1;PMS_P2;Temp;Humidity;BMP_temperature;BMP_pressure;BME280_temperature;BME280_humidity;BME280_pressure;Samples;Min_cycle;Max_cycle;Signal;HPM_P1;HPM_P2
2023/09/26 00:01:32;;;;;;;6.03;3.22;;;13.80;99.90;;;;;;4987866;28;20054;-59
2023/09/26 00:03:58;;;;;;;6.00;2.60;;;13.70;99.90;;;;;;4987205;28;20046;-59
2023/09/26 00:06:24;;;;;;;3.60;2.38;;;13.70;99.90;;;;;;4969374;28;20069;-59
2023/09/26 00:08:54;;;;;;;3.92;2.63;;;13.70;99.90;;;;;;4969037;28;20037;-59
2023/09/26 00:11:21;;;;;;;;;;;13.60;99.90;;;;;;4968797;28;20126;-59
2023/09/26 00:13:49;;;;;;;5.05;2.45;;;13.50;99.90;;;;;;4968329;28;19922;-59
2023/09/26 00:16:15;;;;;;;4.70;2.27;;;13.60;99.90;;;;;;4966934;28;20476;-59
2023/09/26 00:18:42;;;;;;;5.75;2.42;;;13.50;99.90;;;;;;4969087;28;20292;-59
2023/09/26 00:21:11;;;;;;;4.25;2.38;;;13.50;99.90;;;;;;4968091;28;20047;-59
2023/09/26 00:23:37;;;;;;;4.00;2.47;;;13.50;99.90;;;;;;4969151;28;20066;-59
2023/09/26 00:26:04;;;;;;;4.85;2.97;;;13.50;99.90;;;;;;4967455;28;20314;-59
2023/09/26 00:28:30;;;;;;;5.68;3.00;;;13.50;99.90;;;;;;4968132;28;20046;-59
2023/09/26 00:30:56;;;;;;;5.75;2.90;;;13.40;99.90;;;;;;4968865;28;20043;-59
2023/09/26 00:33:23;;;;;;;3.95;2.05;;;13.40;99.90;;;;;;4968267;28;20054;-59
2023/09/26 00:35:48;;;;;;;4.88;2.80;;;13.40;99.90;;;;;;4968237;28;20406;-59
2023/09/26 00:38:14;;;;;;;7.50;3.03;;;13.40;99.90;;;;;;4967056;28;20053;-59
2023/09/26 00:40:41;;;;;;;3.55;2.58;;;13.40;99.90;;;;;;4967942;28;20059;-59
2023/09/26 00:43:07;;;;;;;5.97;3.00;;;13.40;99.90;;;;;;4968190;28;20172;-59
2023/09/26 00:45:35;;;;;;;4.78;3.10;;;13.40;99.90;;;;;;4967488;28;20117;-59
2023/09/26 00:48:03;;;;;;;10.80;3.63;;;13.40;99.90;;;;;;4967798;28;20157;-59
2023/09/26 00:50:29;;;;;;;7.18;2.65;;;13.30;99.90;;;;;;4967677;28;20051;-59
2023/09/26 00:52:55;;;;;;;7.30;2.95;;;13.30;99.90;;;;;;4967022;28;20039;-59
2023/09/26 00:55:23;;;;;;;10.07;3.03;;;13.30;99.90;;;;;;4967980;28;20047;-59
2023/09/26 00:57:50;;;;;;;5.97;2.65;;;13.20;99.90;;;;;;4975155;28;20114;-59
2023/09/26 01:00:19;;;;;;;4.63;2.55;;;13.20;99.90;;;;;;4988313;28;20058;-59
2023/09/26 01:02:45;;;;;;;6.35;3.25;;;13.20;99.90;;;;;;4967908;28;20159;-59
2023/09/26 01:05:11;;;;;;;5.00;2.83;;;13.10;99.90;;;;;;4968420;28;20121;-59
2023/09/26 01:07:38;;;;;;;4.55;2.60;;;13.00;99.90;;;;;;4967960;28;20124;-59
2023/09/26 01:10:08;;;;;;;3.92;2.35;;;13.00;99.90;;;;;;4967568;28;20047;-59
2023/09/26 01:12:35;;;;;;;7.22;3.50;;;13.00;99.90;;;;;;4968270;28;20046;-59
2023/09/26 01:15:01;;;;;;;5.72;2.85;;;13.00;99.90;;;;;;4967549;28;20130;-59
2023/09/26 01:17:30;;;;;;;5.43;2.72;;;12.90;99.90;;;;;;4967413;28;20122;-59
2023/09/26 01:19:56;;;;;;;3.60;2.20;;;12.90;99.90;;;;;;4966225;28;20112;-59
2023/09/26 01:22:26;;;;;;;6.20;3.25;;;12.90;99.90;;;;;;4968675;28;20051;-59
2023/09/26 01:24:52;;;;;;;5.35;2.60;;;12.80;99.90;;;;;;4951246;28;20047;-59
2023/09/26 01:27:18;;;;;;;4.57;2.50;;;12.70;99.90;;;;;;4966627;28;20588;-59
2023/09/26 01:29:47;;;;;;;6.57;2.53;;;12.70;99.90;;;;;;4968456;28;20051;-59
2023/09/26 01:32:13;;;;;;;6.20;2.77;;;12.70;99.90;;;;;;4968635;28;20386;-59
2023/09/26 01:34:39;;;;;;;9.05;3.25;;;12.70;99.90;;;;;;4966714;28;20365;-59
2023/09/26 01:37:07;;;;;;;7.32;3.63;;;12.70;99.90;;;;;;4968640;28;20126;-59
2023/09/26 01:39:32;;;;;;;6.03;3.30;;;12.70;99.90;;;;;;4970892;28;20054;-59
2023/09/26 01:41:58;;;;;;;4.88;2.35;;;12.70;99.90;;;;;;4971334;28;20046;-59
2023/09/26 01:44:24;;;;;;;7.72;3.40;;;12.70;99.90;;;;;;4971699;28;20031;-59
2023/09/26 01:46:50;;;;;;;5.10;2.88;;;12.70;99.90;;;;;;4970153;28;20043;-59
2023/09/26 01:49:16;;;;;;;4.57;2.58;;;12.70;99.90;;;;;;4971888;28;20498;-59
2023/09/26 01:51:41;;;;;;;6.03;3.15;;;12.70;99.90;;;;;;4972014;28;20073;-59
2023/09/26 01:54:07;;;;;;;6.30;3.53;;;12.80;99.90;;;;;;4969861;28;20051;-59
2023/09/26 01:56:33;;;;;;;6.43;3.30;;;12.80;99.90;;;;;;4975336;28;20034;-59
2023/09/26 01:59:00;;;;;;;7.30;3.58;;;12.80;99.90;;;;;;4971432;28;20050;-59
2023/09/26 02:01:26;;;;;;;4.60;3.13;;;12.80;99.90;;;;;;4969499;28;20043;-59
2023/09/26 02:03:52;;;;;;;8.07;4.30;;;12.80;99.90;;;;;;4970242;28;20403;-59
2023/09/26 02:06:17;;;;;;;5.75;3.00;;;12.80;99.90;;;;;;4970528;28;20045;-59
2023/09/26 02:08:43;;;;;;;4.88;3.38;;;12.80;99.90;;;;;;4970915;28;20074;-59
2023/09/26 02:11:09;;;;;;;6.88;3.30;;;12.80;99.90;;;;;;4971044;28;20532;-59
2023/09/26 02:13:35;;;;;;;7.15;3.17;;;12.80;99.90;;;;;;4970395;28;20536;-59
2023/09/26 02:16:00;;;;;;;4.45;2.90;;;12.80;99.90;;;;;;4969510;28;20170;-59
2023/09/26 02:18:26;;;;;;;5.18;3.10;;;12.70;99.90;;;;;;4970243;28;20105;-59
2023/09/26 02:20:52;;;;;;;6.50;3.25;;;12.70;99.90;;;;;;4971176;28;20043;-59
2023/09/26 02:23:19;;;;;;;6.25;2.63;;;12.70;99.90;;;;;;4968480;28;20038;-59
2023/09/26 02:25:51;;;;;;;5.18;3.15;;;12.70;99.90;;;;;;4971272;28;20050;-59
2023/09/26 02:28:17;;;;;;;6.82;3.75;;;12.70;99.90;;;;;;4969824;28;20058;-59
2023/09/26 02:30:43;;;;;;;7.90;4.38;;;12.70;99.90;;;;;;4970622;28;20073;-59
2023/09/26 02:33:09;;;;;;;4.47;3.05;;;12.70;99.90;;;;;;4970020;28;20046;-59
2023/09/26 02:35:35;;;;;;;6.68;3.85;;;12.70;99.90;;;;;;4969960;28;20398;-59
2023/09/26 02:38:01;;;;;;;5.28;2.85;;;12.60;99.90;;;;;;4968929;28;20054;-59
2023/09/26 02:40:27;;;;;;;7.95;3.55;;;12.60;99.90;;;;;;4970910;28;20057;-59
2023/09/26 02:42:52;;;;;;;7.85;3.42;;;12.60;99.90;;;;;;4970179;28;20089;-59
2023/09/26 02:45:18;;;;;;;7.03;3.53;;;12.50;99.90;;;;;;4969619;28;20058;-59
2023/09/26 02:47:44;;;;;;;6.28;2.72;;;12.50;99.90;;;;;;4969856;28;20039;-59
2023/09/26 02:50:11;;;;;;;5.25;3.70;;;12.50;99.90;;;;;;4970049;28;20035;-59
2023/09/26 02:52:40;;;;;;;6.32;2.92;;;12.50;99.90;;;;;;4969339;28;20078;-59
2023/09/26 02:55:07;;;;;;;6.67;3.83;;;12.60;99.90;;;;;;4970820;28;20490;-59
2023/09/26 02:57:34;;;;;;;5.10;2.63;;;12.60;99.90;;;;;;4973735;28;20423;-59
2023/09/26 03:00:00;;;;;;;5.10;3.17;;;12.60;99.90;;;;;;4988528;28;20034;-59
2023/09/26 03:02:26;;;;;;;6.75;3.35;;;12.60;99.90;;;;;;4988966;28;20494;-59
2023/09/26 03:04:52;;;;;;;6.20;3.30;;;12.50;99.90;;;;;;4972298;28;20549;-59
2023/09/26 03:07:17;;;;;;;5.93;3.47;;;12.50;99.90;;;;;;4989907;28;20057;-59
2023/09/26 03:09:45;;;;;;;5.35;3.30;;;12.50;99.90;;;;;;4973493;28;20035;-59
2023/09/26 03:12:13;;;;;;;6.10;3.22;;;12.50;99.90;;;;;;4969952;28;20039;-59
2023/09/26 03:14:39;;;;;;;10.45;4.20;;;12.50;99.90;;;;;;4969184;28;20043;-59
2023/09/26 03:17:06;;;;;;;6.13;3.67;;;12.50;99.90;;;;;;4953160;28;20041;-59
2023/09/26 03:19:31;;;;;;;5.60;3.47;;;12.50;99.90;;;;;;4968658;28;20054;-59
2023/09/26 03:21:57;;;;;;;6.43;3.80;;;12.50;99.90;;;;;;4969013;28;20122;-59
2023/09/26 03:24:23;;;;;;;7.60;2.58;;;12.40;99.90;;;;;;4968438;28;20046;-59
2023/09/26 03:26:49;;;;;;;5.03;3.22;;;12.40;99.90;;;;;;4967863;28;20065;-59
2023/09/26 03:29:14;;;;;;;6.15;3.55;;;12.40;99.90;;;;;;4970219;28;20085;-59
2023/09/26 03:31:41;;;;;;;4.90;2.70;;;12.40;99.90;;;;;;4970311;28;20043;-59
2023/09/26 03:34:08;;;;;;;8.18;3.53;;;12.40;99.90;;;;;;4969808;28;20447;-59
2023/09/26 03:36:36;;;;;;;6.30;3.50;;;12.40;99.90;;;;;;4968911;28;20042;-59
2023/09/26 03:39:03;;;;;;;7.85;3.42;;;12.30;99.90;;;;;;4967898;28;20066;-59
2023/09/26 03:41:30;;;;;;;5.13;3.05;;;12.30;99.90;;;;;;4968641;28;20552;-59
2023/09/26 03:43:56;;;;;;;8.73;3.20;;;12.40;99.90;;;;;;4968911;28;20387;-59
2023/09/26 03:46:22;;;;;;;4.97;2.78;;;12.40;99.90;;;;;;4968301;28;20047;-59
2023/09/26 03:48:49;;;;;;;6.95;2.72;;;12.40;99.90;;;;;;4970158;28;20569;-59
2023/09/26 03:51:15;;;;;;;4.95;2.92;;;12.40;99.90;;;;;;4952539;28;20038;-59
2023/09/26 03:53:42;;;;;;;4.97;3.08;;;12.30;99.90;;;;;;4967653;28;20043;-59
2023/09/26 03:56:08;;;;;;;6.40;3.63;;;12.30;99.90;;;;;;4970395;28;20046;-59
2023/09/26 03:58:35;;;;;;;5.13;2.83;;;12.30;99.90;;;;;;4979207;28;20494;-59
2023/09/26 04:01:15;;;;;;;5.93;2.90;;;12.30;99.90;;;;;;4987642;28;20042;-59
2023/09/26 04:03:46;;;;;;;7.10;3.00;;;12.30;99.90;;;;;;4989317;28;20060;-59
2023/09/26 04:06:12;;;;;;;6.38;3.05;;;12.20;99.90;;;;;;5058614;28;20048;-59
2023/09/26 04:08:38;;;;;;;5.82;3.35;;;12.20;99.90;;;;;;5069215;28;20036;-59
2023/09/26 04:11:04;;;;;;;6.72;3.22;;;12.20;99.90;;;;;;5071144;28;20149;-59
2023/09/26 04:13:29;;;;;;;5.68;2.70;;;12.20;99.90;;;;;;5069706;28;20047;-59
2023/09/26 04:15:55;;;;;;;5.93;3.45;;;12.20;99.90;;;;;;5069225;28;20036;-59
2023/09/26 04:18:22;;;;;;;4.10;2.95;;;12.10;99.90;;;;;;5069657;28;20044;-59
2023/09/26 04:20:51;;;;;;;6.97;3.28;;;12.10;99.90;;;;;;5003954;28;20050;-59
2023/09/26 04:23:17;;;;;;;4.70;2.97;;;12.10;99.90;;;;;;4968252;28;20043;-59
2023/09/26 04:25:44;;;;;;;5.05;2.90;;;12.00;99.90;;;;;;4968415;28;20047;-59
2023/09/26 04:28:09;;;;;;;5.07;2.95;;;12.00;99.90;;;;;;4968144;28;20570;-59
2023/09/26 04:30:37;;;;;;;5.63;2.88;;;11.90;99.90;;;;;;4951707;28;20050;-59
2023/09/26 04:33:04;;;;;;;9.07;3.40;;;11.90;99.90;;;;;;4967959;28;20682;-59
2023/09/26 04:35:29;;;;;;;4.55;3.10;;;11.90;99.90;;;;;;4967409;28;20050;-59
2023/09/26 04:37:55;;;;;;;6.10;3.33;;;11.90;99.90;;;;;;4968047;28;20050;-59
2023/09/26 04:40:21;;;;;;;6.63;3.38;;;12.00;99.90;;;;;;4967648;28;20168;-59
2023/09/26 04:42:49;;;;;;;5.03;2.90;;;12.00;99.90;;;;;;4967390;28;20096;-59
2023/09/26 04:45:15;;;;;;;6.32;3.40;;;12.00;99.90;;;;;;4967845;28;20118;-59
2023/09/26 04:47:41;;;;;;;6.80;3.40;;;12.00;99.90;;;;;;4969030;28;20170;-59
2023/09/26 04:50:08;;;;;;;5.22;2.25;;;12.00;99.90;;;;;;4967115;28;20051;-59
2023/09/26 04:52:34;;;;;;;4.45;2.97;;;12.00;99.90;;;;;;4967717;28;20054;-59
2023/09/26 04:55:00;;;;;;;5.80;3.53;;;11.90;99.90;;;;;;4969169;28;20038;-59
2023/09/26 04:57:26;;;;;;;3.92;2.83;;;12.00;99.90;;;;;;4972145;28;20050;-59
2023/09/26 04:59:51;;;;;;;6.28;3.35;;;12.00;99.90;;;;;;4985617;28;20047;-59
2023/09/26 05:02:17;;;;;;;6.75;3.55;;;11.90;99.90;;;;;;4972877;28;20035;-59
2023/09/26 05:04:45;;;;;;;5.03;2.55;;;11.90;99.90;;;;;;4967030;28;20047;-59
2023/09/26 05:07:11;;;;;;;6.30;3.65;;;11.90;99.90;;;;;;4967630;28;20042;-59
2023/09/26 05:09:37;;;;;;;5.75;3.67;;;11.90;99.90;;;;;;4967805;28;20069;-59
2023/09/26 05:12:03;;;;;;;6.97;3.63;;;11.90;99.90;;;;;;4968838;28;20244;-59
2023/09/26 05:14:29;;;;;;;7.32;3.67;;;12.00;99.90;;;;;;4970909;28;20038;-59
2023/09/26 05:16:55;;;;;;;7.97;3.65;;;12.00;99.90;;;;;;4970475;28;20054;-59
2023/09/26 05:19:20;;;;;;;4.63;3.17;;;12.10;99.90;;;;;;4970804;28;20051;-59
2023/09/26 05:21:46;;;;;;;6.80;4.13;;;12.10;99.90;;;;;;4970880;28;20038;-59
2023/09/26 05:24:12;;;;;;;7.85;4.10;;;12.20;99.90;;;;;;4970387;28;20073;-59
2023/09/26 05:26:38;;;;;;;9.73;4.68;;;12.10;99.90;;;;;;4970870;28;20364;-59
2023/09/26 05:29:03;;;;;;;7.93;4.75;;;12.20;99.90;;;;;;4970546;28;20088;-59
2023/09/26 05:31:31;;;;;;;8.95;4.05;;;12.30;99.90;;;;;;4969342;28;20046;-59
2023/09/26 05:33:58;;;;;;;9.80;4.80;;;12.30;99.90;;;;;;4970594;28;20125;-59
2023/09/26 05:36:24;;;;;;;10.30;4.25;;;12.30;99.90;;;;;;4970640;28;20051;-59
2023/09/26 05:38:49;;;;;;;8.77;4.40;;;12.30;99.90;;;;;;4969908;28;20058;-59
2023/09/26 05:41:15;;;;;;;9.02;4.28;;;12.30;99.90;;;;;;4971891;28;20096;-59
2023/09/26 05:43:41;;;;;;;9.85;4.60;;;12.30;99.90;;;;;;4970578;28;20034;-59
2023/09/26 05:46:07;;;;;;;6.45;3.95;;;12.40;99.90;;;;;;4969808;28;20046;-59
2023/09/26 05:48:34;;;;;;;9.60;4.10;;;12.40;99.90;;;;;;4970429;28;20130;-59
2023/09/26 05:51:02;;;;;;;10.25;4.80;;;12.40;99.90;;;;;;4971627;28;20046;-59
2023/09/26 05:53:29;;;;;;;8.13;4.40;;;12.40;99.90;;;;;;4969714;28;20051;-59
2023/09/26 05:55:55;;;;;;;7.60;3.97;;;12.40;99.90;;;;;;4971352;28;20117;-59
2023/09/26 05:58:21;;;;;;;8.27;4.53;;;12.40;99.90;;;;;;4974519;28;20047;-59
2023/09/26 06:00:48;;;;;;;5.97;4.40;;;12.50;99.90;;;;;;4970946;28;20054;-59
2023/09/26 06:03:14;;;;;;;8.68;4.35;;;12.50;99.90;;;;;;4970304;28;20051;-59
2023/09/26 06:05:42;;;;;;;10.82;4.88;;;12.50;99.90;;;;;;4970488;28;20046;-59
2023/09/26 06:08:08;;;;;;;7.93;4.20;;;12.60;99.90;;;;;;4969655;28;20054;-59
2023/09/26 06:10:34;;;;;;;6.82;4.00;;;12.60;99.90;;;;;;4971451;28;20042;-59
2023/09/26 06:13:00;;;;;;;8.73;4.00;;;12.60;99.90;;;;;;4969383;28;20044;-59
2023/09/26 06:15:26;;;;;;;9.80;4.70;;;12.70;99.90;;;;;;4970055;28;20054;-59
2023/09/26 06:18:02;;;;;;;9.88;4.63;;;12.70;99.90;;;;;;4970129;28;20062;-59
2023/09/26 06:20:28;;;;;;;8.23;4.78;;;12.80;99.90;;;;;;4969547;28;20116;-59
2023/09/26 06:22:54;;;;;;;7.95;4.63;;;12.80;99.90;;;;;;4969875;28;20047;-59
2023/09/26 06:25:22;;;;;;;6.25;4.18;;;12.90;99.90;;;;;;4970715;28;20387;-59
2023/09/26 06:27:49;;;;;;;9.02;4.53;;;13.00;99.90;;;;;;4970546;28;20047;-59
2023/09/26 06:30:15;;;;;;;9.63;4.47;;;13.10;99.90;;;;;;4970040;28;20058;-59
2023/09/26 06:32:41;;;;;;;7.38;4.28;;;13.20;99.90;;;;;;4969371;28;20054;-59
2023/09/26 06:35:07;;;;;;;7.45;4.43;;;13.30;99.90;;;;;;4969754;28;20047;-59
2023/09/26 06:37:34;;;;;;;7.00;4.00;;;13.30;99.90;;;;;;4971165;28;20038;-59
2023/09/26 06:40:04;;;;;;;8.65;4.63;;;13.40;99.90;;;;;;4970701;28;20406;-59
2023/09/26 06:42:30;;;;;;;8.98;4.50;;;13.60;99.90;;;;;;4968955;28;20043;-59
2023/09/26 06:44:57;;;;;;;8.20;4.35;;;13.60;99.90;;;;;;4969618;28;20046;-59
2023/09/26 06:47:26;;;;;;;7.80;4.60;;;13.70;99.90;;;;;;4969584;28;20505;-59
2023/09/26 06:49:56;;;;;;;10.25;5.57;;;13.80;99.90;;;;;;4969085;28;20055;-60
2023/09/26 06:52:25;;;;;;;8.23;4.72;;;13.90;99.90;;;;;;4969469;28;20574;-60
2023/09/26 06:54:51;;;;;;;8.77;4.90;;;13.90;99.90;;;;;;4968646;28;20054;-59
2023/09/26 06:57:20;;;;;;;9.50;4.82;;;14.00;99.90;;;;;;4975889;28;20042;-60
2023/09/26 06:59:50;;;;;;;11.47;4.90;;;14.00;99.90;;;;;;4986713;28;20047;-59
2023/09/26 07:02:16;;;;;;;;;;;14.10;99.90;;;;;;4988879;28;20314;-59
2023/09/26 07:04:41;;;;;;;9.68;4.50;;;14.10;99.90;;;;;;4972597;28;19928;-60
2023/09/26 07:07:07;;;;;;;8.27;4.60;;;14.10;99.90;;;;;;4972857;28;20050;-60
2023/09/26 07:09:33;;;;;;;9.32;4.57;;;14.10;99.90;;;;;;4976881;28;20566;-59
2023/09/26 07:11:59;;;;;;;7.40;4.32;;;14.10;99.90;;;;;;4969167;28;20050;-60
2023/09/26 07:14:24;;;;;;;6.90;4.35;;;14.10;99.90;;;;;;4969236;28;20038;-59
2023/09/26 07:16:51;;;;;;;8.80;4.40;;;14.10;99.90;;;;;;4952567;28;20085;-60
2023/09/26 07:19:17;;;;;;;7.93;4.38;;;14.10;99.90;;;;;;4969100;28;20042;-59
2023/09/26 07:21:43;;;;;;;10.45;4.45;;;14.10;99.90;;;;;;4966449;28;20049;-59
2023/09/26 07:24:09;;;;;;;9.68;5.05;;;14.10;99.90;;;;;;4952107;28;20510;-59
2023/09/26 07:26:35;;;;;;;10.75;5.53;;;14.20;99.90;;;;;;4970126;28;20100;-59
2023/09/26 07:29:00;;;;;;;10.48;5.10;;;14.30;99.90;;;;;;4968840;28;20039;-60
2023/09/26 07:31:26;;;;;;;10.48;4.75;;;14.30;99.90;;;;;;4968502;28;20066;-59
2023/09/26 07:33:52;;;;;;;6.00;3.78;;;14.40;99.90;;;;;;4968850;28;20053;-59
2023/09/26 07:36:18;;;;;;;6.15;3.90;;;14.50;99.90;;;;;;4969163;28;20043;-59
2023/09/26 07:38:44;;;;;;;10.48;4.75;;;14.60;99.90;;;;;;4968457;28;20051;-59
2023/09/26 07:41:10;;;;;;;8.10;4.10;;;14.70;99.90;;;;;;4968706;28;20054;-59
2023/09/26 07:43:35;;;;;;;6.85;4.53;;;14.80;99.90;;;;;;4968623;28;20490;-59
2023/09/26 07:46:12;;;;;;;8.65;3.70;;;14.80;99.90;;;;;;4968044;28;20051;-59
2023/09/26 07:48:39;;;;;;;7.97;4.10;;;14.80;99.90;;;;;;4968542;28;20101;-60
2023/09/26 07:51:06;;;;;;;6.43;3.53;;;14.90;99.90;;;;;;4968140;28;20116;-59
2023/09/26 07:53:32;;;;;;;7.30;4.28;;;14.90;99.90;;;;;;4968405;28;20051;-59
2023/09/26 07:55:58;;;;;;;8.48;4.22;;;15.00;99.90;;;;;;4969318;28;20045;-59
2023/09/26 07:58:24;;;;;;;7.95;4.18;;;15.20;99.90;;;;;;4979751;28;20046;-59
2023/09/26 08:00:52;;;;;;;7.30;3.83;;;15.20;99.90;;;;;;4988996;28;20108;-60
2023/09/26 08:03:18;;;;;;;6.32;3.88;;;15.30;99.90;;;;;;4988078;28;20042;-59
2023/09/26 08:05:43;;;;;;;6.28;4.13;;;15.30;99.90;;;;;;4975328;28;20061;-59
2023/09/26 08:08:09;;;;;;;7.35;3.47;;;15.40;99.90;;;;;;4969634;28;20039;-60
2023/09/26 08:10:39;;;;;;;9.15;4.15;;;15.40;99.90;;;;;;4969462;28;20553;-59
2023/09/26 08:13:05;;;;;;;;;;;15.40;99.90;;;;;;4969591;28;20608;-59
2023/09/26 08:15:31;;;;;;;5.85;3.42;;;15.40;99.90;;;;;;4968483;28;19925;-59
2023/09/26 08:17:57;;;;;;;7.75;3.78;;;15.40;99.90;;;;;;4952135;28;20043;-59
2023/09/26 08:20:26;;;;;;;7.88;3.97;;;15.40;99.90;;;;;;4968731;28;20053;-59
2023/09/26 08:22:52;;;;;;;7.40;3.77;;;15.50;99.90;;;;;;4968070;28;20055;-59
2023/09/26 08:25:18;;;;;;;10.02;4.65;;;15.70;99.90;;;;;;4969418;28;20046;-59
2023/09/26 08:27:44;;;;;;;6.90;3.88;;;15.80;99.90;;;;;;4967679;28;20124;-59
2023/09/26 08:30:11;;;;;;;6.22;4.18;;;16.00;99.90;;;;;;4969353;28;20047;-60
2023/09/26 08:32:38;;;;;;;5.85;3.92;;;16.20;99.90;;;;;;4969170;28;20061;-59
2023/09/26 08:35:06;;;;;;;7.95;4.13;;;16.30;99.90;;;;;;4967144;28;20046;-59
2023/09/26 08:37:33;;;;;;;6.03;4.07;;;16.30;99.90;;;;;;4969417;28;20196;-59
2023/09/26 08:40:00;;;;;;;6.35;4.13;;;16.40;99.90;;;;;;4967467;28;20527;-60
2023/09/26 08:42:27;;;;;;;6.85;3.92;;;16.40;99.90;;;;;;4967700;28;20043;-59
2023/09/26 08:44:58;;;;;;;7.15;3.60;;;16.50;99.90;;;;;;4967778;28;20045;-60
2023/09/26 08:47:24;;;;;;;4.90;3.22;;;16.60;99.90;;;;;;4966542;28;20082;-60
2023/09/26 08:49:54;;;;;;;5.90;3.58;;;16.60;99.90;;;;;;4969114;28;20043;-60
2023/09/26 08:52:20;;;;;;;;;;;16.80;99.90;;;;;;4969512;28;20382;-60
2023/09/26 08:54:46;;;;;;;8.07;2.78;;;17.10;99.90;;;;;;4951696;28;19929;-60
2023/09/26 08:57:13;;;;;;;8.30;3.95;;;17.30;99.90;;;;;;4953764;28;20406;-60
2023/09/26 08:59:42;;;;;;;6.38;3.65;;;17.70;99.90;;;;;;4971708;28;20438;-60
2023/09/26 09:02:11;;;;;;;7.60;3.38;;;18.00;99.90;;;;;;4938051;28;20044;-61
2023/09/26 09:04:43;;;;;;;6.70;3.20;;;18.30;99.90;;;;;;4948341;29;20051;-60
2023/09/26 09:07:10;;;;;;;7.57;3.72;;;18.50;99.90;;;;;;4948567;28;20081;-60
2023/09/26 09:09:36;;;;;;;7.53;3.30;;;18.40;99.90;;;;;;4949091;28;20109;-60
2023/09/26 09:12:02;;;;;;;4.97;2.63;;;18.20;99.90;;;;;;4952508;28;20055;-60
2023/09/26 09:14:35;;;;;;;5.22;2.70;;;18.10;99.90;;;;;;4968577;28;20100;-60
2023/09/26 09:17:01;;;;;;;4.68;2.85;;;18.10;99.90;;;;;;4968310;28;20047;-60
2023/09/26 09:19:45;;;;;;;5.43;2.83;;;18.40;99.90;;;;;;4967561;28;20043;-60
2023/09/26 09:22:19;;;;;;;5.53;2.83;;;18.90;99.90;;;;;;4966828;28;20137;-60
2023/09/26 09:24:56;;;;;;;7.20;3.45;;;19.20;99.90;;;;;;4968322;28;20069;-60
2023/09/26 09:27:38;;;;;;;5.72;2.72;;;19.70;99.90;;;;;;4968907;28;20039;-60
2023/09/26 09:30:18;;;;;;;6.72;3.17;;;20.00;99.90;;;;;;4967963;28;20047;-60
2023/09/26 09:32:44;;;;;;;5.05;2.95;;;20.10;99.90;;;;;;4953289;28;20050;-60
2023/09/26 09:35:13;;;;;;;10.50;2.85;;;19.90;99.90;;;;;;4967365;28;20051;-60
2023/09/26 09:37:43;;;;;;;4.18;2.60;;;19.80;99.90;;;;;;4966744;28;20042;-60
2023/09/26 09:40:10;;;;;;;8.52;2.72;;;19.60;99.90;;;;;;4966951;28;20518;-60
2023/09/26 09:42:36;;;;;;;5.50;2.97;;;19.60;99.90;;;;;;4967360;28;20437;-60
2023/09/26 09:45:04;;;;;;;6.03;2.95;;;19.60;99.90;;;;;;4967411;28;20128;-60
2023/09/26 09:47:32;;;;;;;6.00;3.33;;;19.80;99.90;;;;;;4950865;28;20039;-60
2023/09/26 09:50:01;;;;;;;4.20;2.63;;;20.00;99.90;;;;;;4966495;28;20509;-60
2023/09/26 09:52:30;;;;;;;5.70;2.88;;;20.30;99.90;;;;;;4968497;28;20404;-60
2023/09/26 09:54:58;;;;;;;4.43;2.63;;;20.50;99.90;;;;;;4968263;28;20035;-60
2023/09/26 09:57:26;;;;;;;7.25;3.20;;;21.00;99.90;;;;;;4971337;28;20059;-60
2023/09/26 09:59:53;;;;;;;7.53;2.63;;;21.60;99.90;;;;;;4968550;28;20055;-60
2023/09/26 10:02:20;;;;;;;5.75;2.60;;;22.10;99.90;;;;;;4971518;28;20122;-60
2023/09/26 10:04:47;;;;;;;4.97;2.63;;;22.40;99.90;;;;;;4969864;28;20050;-60
2023/09/26 10:07:17;;;;;;;3.70;2.08;;;22.60;99.90;;;;;;4970344;28;20085;-61
2023/09/26 10:09:44;;;;;;;;;;;22.80;99.90;;;;;;4970744;28;20410;-61
2023/09/26 10:12:12;;;;;;;5.82;2.40;;;22.80;99.90;;;;;;4969512;28;19960;-61
2023/09/26 10:14:38;;;;;;;4.50;2.63;;;22.60;99.90;;;;;;4970281;28;20501;-61
2023/09/26 10:17:05;;;;;;;7.50;2.88;;;22.20;99.90;;;;;;4970312;28;20290;-61
2023/09/26 10:19:33;;;;;;;4.68;2.47;;;21.90;99.90;;;;;;4970649;28;20168;-61
2023/09/26 10:22:19;;;;;;;6.30;3.03;;;21.50;99.90;;;;;;4970014;28;20123;-61
2023/09/26 10:24:47;;;;;;;5.22;2.13;;;21.20;99.90;;;;;;4969616;28;20655;-61
2023/09/26 10:27:12;;;;;;;4.50;2.42;;;21.10;99.90;;;;;;4969682;28;20062;-61
2023/09/26 10:29:38;;;;;;;5.20;3.00;;;21.10;99.90;;;;;;4969908;28;20043;-61
2023/09/26 10:32:07;;;;;;;3.63;1.88;;;21.10;99.90;;;;;;4953480;28;20049;-61
2023/09/26 10:34:35;;;;;;;7.70;2.55;;;21.10;99.90;;;;;;4969506;28;20043;-61
2023/09/26 10:37:03;;;;;;;5.53;2.42;;;21.20;99.90;;;;;;4969931;28;20130;-61
2023/09/26 10:39:39;;;;;;;5.55;2.85;;;21.20;99.90;;;;;;4970075;28;20059;-61
2023/09/26 10:42:12;;;;;;;4.53;2.47;;;21.30;99.90;;;;;;4969792;28;20051;-61
2023/09/26 10:44:45;;;;;;;3.53;2.25;;;21.20;99.90;;;;;;4968980;28;20047;-61
2023/09/26 10:47:18;;;;;;;4.95;2.22;;;21.10;99.90;;;;;;4968342;28;20050;-61
2023/09/26 10:49:44;;;;;;;3.80;2.30;;;20.90;99.90;;;;;;4953398;28;20510;-60
2023/09/26 10:52:12;;;;;;;4.88;2.35;;;20.80;99.90;;;;;;4970661;28;20046;-61
2023/09/26 10:54:40;;;;;;;4.45;2.67;;;20.70;99.90;;;;;;4969857;28;20394;-61
2023/09/26 10:57:06;;;;;;;3.30;2.45;;;20.60;99.90;;;;;;4974318;28;20053;-61
2023/09/26 10:59:33;;;;;;;5.13;2.67;;;20.50;99.90;;;;;;4984514;28;20046;-61
2023/09/26 11:02:01;;;;;;;5.28;2.28;;;20.30;99.90;;;;;;4989684;28;20437;-60
2023/09/26 11:04:31;;;;;;;4.10;2.58;;;20.30;99.90;;;;;;4988521;28;20038;-61
2023/09/26 11:07:05;;;;;;;3.22;1.95;;;20.40;99.90;;;;;;4972051;28;20070;-60
2023/09/26 11:09:33;;;;;;;4.50;2.63;;;20.50;99.90;;;;;;4988284;28;20081;-61
2023/09/26 11:12:00;;;;;;;7.80;2.88;;;20.50;99.90;;;;;;4985695;28;20050;-61
2023/09/26 11:14:26;;;;;;;5.18;2.70;;;20.60;99.90;;;;;;4968609;28;20049;-62
2023/09/26 11:16:53;;;;;;;6.70;2.70;;;20.60;99.90;;;;;;4968883;28;20055;-61
2023/09/26 11:19:22;;;;;;;4.68;2.53;;;20.60;99.90;;;;;;4970277;28;20043;-61
2023/09/26 11:21:51;;;;;;;4.28;2.72;;;20.90;99.90;;;;;;4968395;28;20043;-61
2023/09/26 11:24:18;;;;;;;6.15;3.25;;;21.10;99.90;;;;;;4968752;28;20129;-61
2023/09/26 11:26:45;;;;;;;4.30;3.10;;;21.20;99.90;;;;;;4968765;28;20487;-62
2023/09/26 11:29:11;;;;;;;4.03;2.70;;;21.30;99.90;;;;;;4967819;28;20096;-61
2023/09/26 11:31:38;;;;;;;6.90;3.00;;;21.50;99.90;;;;;;4969606;28;20035;-61
2023/09/26 11:34:03;;;;;;;5.95;2.40;;;21.60;99.90;;;;;;4968177;28;20115;-61
2023/09/26 11:36:31;;;;;;;4.50;2.22;;;21.70;99.90;;;;;;4966851;28;20055;-61
2023/09/26 11:38:59;;;;;;;7.75;2.50;;;21.80;99.90;;;;;;4951877;28;20051;-61
2023/09/26 11:41:26;;;;;;;4.15;2.35;;;21.80;99.90;;;;;;4969351;28;20130;-62
2023/09/26 11:43:52;;;;;;;6.28;2.85;;;21.70;99.90;;;;;;4968772;28;20436;-61
2023/09/26 11:46:19;;;;;;;6.20;2.78;;;21.60;99.90;;;;;;4968085;28;20126;-61
2023/09/26 11:48:46;;;;;;;4.95;2.67;;;21.80;99.90;;;;;;4967236;28;20043;-62
2023/09/26 11:51:13;;;;;;;5.65;2.78;;;22.00;99.90;;;;;;4967586;28;20057;-61
2023/09/26 11:53:40;;;;;;;5.05;3.33;;;22.20;99.90;;;;;;4951669;28;20054;-61
2023/09/26 11:56:08;;;;;;;4.80;2.53;;;22.30;99.90;;;;;;4968867;28;20067;-61
2023/09/26 11:58:36;;;;;;;4.28;2.20;;;22.50;99.90;;;;;;4978408;28;20175;-61
2023/09/26 12:01:04;;;;;;;7.32;2.72;;;22.70;99.90;;;;;;4971020;28;20050;-61
2023/09/26 12:03:30;;;;;;;3.67;2.58;;;22.70;99.90;;;;;;4986555;28;20486;-61
2023/09/26 12:05:56;;;;;;;4.95;2.58;;;22.80;99.90;;;;;;4987245;28;20056;-60
2023/09/26 12:08:22;;;;;;;5.82;2.80;;;22.90;99.90;;;;;;4989164;28;20045;-62
2023/09/26 12:10:48;;;;;;;4.47;2.15;;;23.10;99.90;;;;;;4987069;28;20057;-62
2023/09/26 12:13:13;;;;;;;4.05;2.15;;;23.50;99.90;;;;;;4974874;28;20043;-60
2023/09/26 12:15:39;;;;;;;4.25;2.30;;;23.80;99.90;;;;;;4968133;28;20039;-61
2023/09/26 12:18:05;;;;;;;5.85;2.92;;;23.80;99.90;;;;;;4967688;28;20039;-62
2023/09/26 12:20:31;;;;;;;4.75;2.45;;;23.70;99.90;;;;;;4967956;28;20042;-61
2023/09/26 12:22:57;;;;;;;5.65;2.35;;;23.30;99.90;;;;;;4951730;28;20047;-60
2023/09/26 12:25:25;;;;;;;6.82;2.78;;;23.10;99.90;;;;;;4947830;28;20074;-61
2023/09/26 12:27:52;;;;;;;5.22;2.65;;;23.00;99.90;;;;;;4948850;29;20043;-61
2023/09/26 12:30:19;;;;;;;5.53;2.25;;;22.90;99.90;;;;;;4948665;28;20057;-61
2023/09/26 12:32:46;;;;;;;4.15;2.13;;;22.80;99.90;;;;;;4968495;28;20035;-61
2023/09/26 12:35:12;;;;;;;4.97;2.08;;;22.70;99.90;;;;;;4969077;28;20053;-61
2023/09/26 12:37:38;;;;;;;4.15;2.65;;;22.60;99.90;;;;;;4951768;28;20043;-61
2023/09/26 12:40:13;;;;;;;4.68;2.38;;;22.60;99.90;;;;;;4966773;28;20066;-61
2023/09/26 12:42:40;;;;;;;4.15;2.47;;;22.70;99.90;;;;;;4967950;28;20387;-62
2023/09/26 12:45:08;;;;;;;4.18;2.55;;;22.60;99.90;;;;;;4951529;28;20047;-60
2023/09/26 12:47:34;;;;;;;3.22;1.90;;;22.30;99.90;;;;;;4967728;28;20100;-61